This is the latest recevied weather packets stored in our database for station/object LROP. If no packets are shown the sender has not sent any weather packets the latest 10 day(s).
| Time | Temp. | Humidity | Pressure | Rain* | Wind** | Luminosity | Snow |
|---|---|---|---|---|---|---|---|
| 1777878183 | 16.11° C | 48% | 1017 hPa | - | - | - | - |
| 1777877281 | 15° C | 59% | 1016 hPa | - | - | - | - |
| 1777876383 | 15° C | 59% | 1016 hPa | - | - | - | - |
| 1777875483 | 12.22° C | 67% | 1017 hPa | - | - | - | - |
| 1777874582 | 12.22° C | 67% | 1017 hPa | - | - | - | - |
| 1777873683 | 11.11° C | 67% | 1017 hPa | - | - | - | - |
| 1777872783 | 11.11° C | 67% | 1017 hPa | - | - | - | - |
| 1777871882 | 8.89° C | 71% | 1017 hPa | - | - | - | - |
| 1777870992 | 8.89° C | 71% | 1017 hPa | - | - | - | - |
| 1777870082 | 7.22° C | 76% | 1017 hPa | - | - | - | - |
| 1777869182 | 7.22° C | 76% | 1017 hPa | - | - | - | - |
| 1777868282 | 6.11° C | 81% | 1017 hPa | - | - | - | - |
| 1777867382 | 6.11° C | 81% | 1017 hPa | - | - | - | - |
| 1777866482 | 3.89° C | 93% | 1017 hPa | - | - | - | - |
| 1777865582 | 3.89° C | 93% | 1017 hPa | - | - | - | - |
| 1777864682 | 3.89° C | 93% | 1017 hPa | - | - | - | - |
| 1777863856 | 3.89° C | 93% | 1017 hPa | - | - | - | - |
| 1777862883 | 3.89° C | 87% | 1017 hPa | - | - | - | - |
| 1777861982 | 3.89° C | 87% | 1017 hPa | - | - | - | - |
| 1777861082 | 3.89° C | 87% | 1018 hPa | - | - | - | - |
| 1777860182 | 3.89° C | 87% | 1018 hPa | - | - | - | - |
| 1777859282 | 5° C | 81% | 1018 hPa | - | - | - | - |
| 1777858387 | 5° C | 81% | 1018 hPa | - | - | - | - |
| 1777857556 | 5° C | 81% | 1018 hPa | - | - | - | - |
| 1777856582 | 5° C | 81% | 1018 hPa | - | - | - | - |
* Rain since midnight (hover to see other rain measurements)
** Current wind speed in m/s (hover to see current wind gust speed)